sensor_id;sensor_type;location;lat;lon;timestamp;P1;durP1;ratioP1;P2;durP2;ratioP2
14143;SDS011;7152;48.348;10.980;2023-07-30T00:01:15;5.33;;;3.50;;
14143;SDS011;7152;48.348;10.980;2023-07-30T00:03:41;3.93;;;3.60;;
14143;SDS011;7152;48.348;10.980;2023-07-30T00:06:07;4.13;;;3.73;;
14143;SDS011;7152;48.348;10.980;2023-07-30T00:08:33;4.67;;;3.60;;
14143;SDS011;7152;48.348;10.980;2023-07-30T00:10:58;3.97;;;3.43;;
14143;SDS011;7152;48.348;10.980;2023-07-30T00:13:25;3.63;;;3.33;;
14143;SDS011;7152;48.348;10.980;2023-07-30T00:15:51;4.50;;;3.57;;
14143;SDS011;7152;48.348;10.980;2023-07-30T00:18:16;4.20;;;3.17;;
14143;SDS011;7152;48.348;10.980;2023-07-30T00:20:42;7.50;;;3.47;;
14143;SDS011;7152;48.348;10.980;2023-07-30T00:23:08;3.50;;;2.80;;
14143;SDS011;7152;48.348;10.980;2023-07-30T00:25:34;3.80;;;3.50;;
14143;SDS011;7152;48.348;10.980;2023-07-30T00:28:00;3.60;;;3.30;;
14143;SDS011;7152;48.348;10.980;2023-07-30T00:30:26;4.37;;;3.97;;
14143;SDS011;7152;48.348;10.980;2023-07-30T00:32:52;4.03;;;3.60;;
14143;SDS011;7152;48.348;10.980;2023-07-30T00:35:18;4.03;;;3.63;;
14143;SDS011;7152;48.348;10.980;2023-07-30T00:37:44;4.10;;;3.70;;
14143;SDS011;7152;48.348;10.980;2023-07-30T00:40:11;3.50;;;3.20;;
14143;SDS011;7152;48.348;10.980;2023-07-30T00:42:37;3.33;;;3.03;;
14143;SDS011;7152;48.348;10.980;2023-07-30T00:45:03;3.47;;;3.17;;
14143;SDS011;7152;48.348;10.980;2023-07-30T00:47:29;4.50;;;3.07;;
14143;SDS011;7152;48.348;10.980;2023-07-30T00:49:56;5.03;;;3.10;;
14143;SDS011;7152;48.348;10.980;2023-07-30T00:52:22;5.30;;;3.17;;
14143;SDS011;7152;48.348;10.980;2023-07-30T00:54:50;4.07;;;3.37;;
14143;SDS011;7152;48.348;10.980;2023-07-30T00:57:17;3.13;;;2.70;;
14143;SDS011;7152;48.348;10.980;2023-07-30T00:59:44;3.27;;;2.97;;
14143;SDS011;7152;48.348;10.980;2023-07-30T01:02:11;3.67;;;3.23;;
14143;SDS011;7152;48.348;10.980;2023-07-30T01:04:38;3.43;;;3.13;;
14143;SDS011;7152;48.348;10.980;2023-07-30T01:07:05;2.90;;;2.60;;
14143;SDS011;7152;48.348;10.980;2023-07-30T01:09:31;5.03;;;3.07;;
14143;SDS011;7152;48.348;10.980;2023-07-30T01:11:58;3.10;;;2.80;;
14143;SDS011;7152;48.348;10.980;2023-07-30T01:14:25;3.30;;;3.00;;
14143;SDS011;7152;48.348;10.980;2023-07-30T01:16:52;4.27;;;3.20;;
14143;SDS011;7152;48.348;10.980;2023-07-30T01:19:18;4.00;;;3.40;;
14143;SDS011;7152;48.348;10.980;2023-07-30T01:21:44;3.40;;;2.90;;
14143;SDS011;7152;48.348;10.980;2023-07-30T01:24:10;3.93;;;3.00;;
14143;SDS011;7152;48.348;10.980;2023-07-30T01:26:54;3.10;;;2.80;;
14143;SDS011;7152;48.348;10.980;2023-07-30T01:29:37;3.33;;;3.03;;
14143;SDS011;7152;48.348;10.980;2023-07-30T01:32:07;3.67;;;3.30;;
14143;SDS011;7152;48.348;10.980;2023-07-30T01:34:36;4.13;;;3.27;;
14143;SDS011;7152;48.348;10.980;2023-07-30T01:37:04;6.90;;;2.97;;
14143;SDS011;7152;48.348;10.980;2023-07-30T01:39:33;3.63;;;3.33;;
14143;SDS011;7152;48.348;10.980;2023-07-30T01:42:03;3.37;;;3.10;;
14143;SDS011;7152;48.348;10.980;2023-07-30T01:44:29;4.03;;;2.93;;
14143;SDS011;7152;48.348;10.980;2023-07-30T01:46:55;5.37;;;3.33;;
14143;SDS011;7152;48.348;10.980;2023-07-30T01:49:21;4.00;;;3.07;;
14143;SDS011;7152;48.348;10.980;2023-07-30T01:51:47;3.73;;;2.83;;
14143;SDS011;7152;48.348;10.980;2023-07-30T01:54:14;4.83;;;3.43;;
14143;SDS011;7152;48.348;10.980;2023-07-30T01:56:39;3.90;;;3.43;;
14143;SDS011;7152;48.348;10.980;2023-07-30T01:59:05;2.70;;;2.50;;
14143;SDS011;7152;48.348;10.980;2023-07-30T02:01:31;3.10;;;2.80;;
14143;SDS011;7152;48.348;10.980;2023-07-30T02:03:57;4.57;;;3.20;;
14143;SDS011;7152;48.348;10.980;2023-07-30T02:06:23;4.07;;;3.30;;
14143;SDS011;7152;48.348;10.980;2023-07-30T02:08:49;3.50;;;3.20;;
14143;SDS011;7152;48.348;10.980;2023-07-30T02:11:14;5.93;;;3.50;;
14143;SDS011;7152;48.348;10.980;2023-07-30T02:13:40;3.40;;;2.97;;
14143;SDS011;7152;48.348;10.980;2023-07-30T02:16:07;3.20;;;2.90;;
14143;SDS011;7152;48.348;10.980;2023-07-30T02:18:33;3.83;;;3.13;;
14143;SDS011;7152;48.348;10.980;2023-07-30T02:20:59;4.13;;;3.73;;
14143;SDS011;7152;48.348;10.980;2023-07-30T02:23:25;3.03;;;2.80;;
14143;SDS011;7152;48.348;10.980;2023-07-30T02:25:50;4.57;;;3.63;;
14143;SDS011;7152;48.348;10.980;2023-07-30T02:28:16;3.40;;;3.10;;
14143;SDS011;7152;48.348;10.980;2023-07-30T02:30:42;3.73;;;3.17;;
14143;SDS011;7152;48.348;10.980;2023-07-30T02:33:08;3.20;;;2.90;;
14143;SDS011;7152;48.348;10.980;2023-07-30T02:35:34;2.73;;;2.53;;
14143;SDS011;7152;48.348;10.980;2023-07-30T02:37:59;3.27;;;2.97;;
14143;SDS011;7152;48.348;10.980;2023-07-30T02:40:25;2.90;;;2.70;;
14143;SDS011;7152;48.348;10.980;2023-07-30T02:42:51;4.23;;;2.67;;
14143;SDS011;7152;48.348;10.980;2023-07-30T02:45:17;3.43;;;2.93;;
14143;SDS011;7152;48.348;10.980;2023-07-30T02:47:43;3.60;;;3.27;;
14143;SDS011;7152;48.348;10.980;2023-07-30T02:50:09;3.50;;;3.20;;
14143;SDS011;7152;48.348;10.980;2023-07-30T02:52:35;3.83;;;3.40;;
14143;SDS011;7152;48.348;10.980;2023-07-30T02:55:00;4.30;;;3.90;;
14143;SDS011;7152;48.348;10.980;2023-07-30T02:57:26;3.93;;;3.63;;
14143;SDS011;7152;48.348;10.980;2023-07-30T02:59:52;4.00;;;3.70;;
14143;SDS011;7152;48.348;10.980;2023-07-30T03:02:18;4.47;;;3.53;;
14143;SDS011;7152;48.348;10.980;2023-07-30T03:04:44;4.07;;;3.70;;
14143;SDS011;7152;48.348;10.980;2023-07-30T03:07:10;3.57;;;3.27;;
14143;SDS011;7152;48.348;10.980;2023-07-30T03:09:36;4.63;;;4.23;;
14143;SDS011;7152;48.348;10.980;2023-07-30T03:12:02;8.77;;;4.00;;
14143;SDS011;7152;48.348;10.980;2023-07-30T03:14:29;4.87;;;4.03;;
14143;SDS011;7152;48.348;10.980;2023-07-30T03:16:55;4.07;;;3.47;;
14143;SDS011;7152;48.348;10.980;2023-07-30T03:19:20;4.30;;;3.87;;
14143;SDS011;7152;48.348;10.980;2023-07-30T03:21:46;4.67;;;4.03;;
14143;SDS011;7152;48.348;10.980;2023-07-30T03:24:12;5.73;;;4.10;;
14143;SDS011;7152;48.348;10.980;2023-07-30T03:26:38;4.67;;;4.13;;
14143;SDS011;7152;48.348;10.980;2023-07-30T03:29:04;4.53;;;4.07;;
14143;SDS011;7152;48.348;10.980;2023-07-30T03:31:29;4.57;;;4.17;;
14143;SDS011;7152;48.348;10.980;2023-07-30T03:33:55;5.17;;;4.67;;
14143;SDS011;7152;48.348;10.980;2023-07-30T03:36:21;5.43;;;4.47;;
14143;SDS011;7152;48.348;10.980;2023-07-30T03:38:47;5.50;;;4.77;;
14143;SDS011;7152;48.348;10.980;2023-07-30T03:41:13;4.73;;;4.27;;
14143;SDS011;7152;48.348;10.980;2023-07-30T03:43:39;5.30;;;4.43;;
14143;SDS011;7152;48.348;10.980;2023-07-30T03:46:04;5.77;;;4.83;;
14143;SDS011;7152;48.348;10.980;2023-07-30T03:48:30;8.47;;;5.20;;
14143;SDS011;7152;48.348;10.980;2023-07-30T03:50:56;5.30;;;4.43;;
14143;SDS011;7152;48.348;10.980;2023-07-30T03:53:22;5.60;;;4.90;;
14143;SDS011;7152;48.348;10.980;2023-07-30T03:55:48;5.13;;;4.70;;
14143;SDS011;7152;48.348;10.980;2023-07-30T03:58:14;5.73;;;4.63;;
14143;SDS011;7152;48.348;10.980;2023-07-30T04:00:40;6.93;;;5.40;;
14143;SDS011;7152;48.348;10.980;2023-07-30T04:03:06;7.43;;;5.23;;
14143;SDS011;7152;48.348;10.980;2023-07-30T04:05:31;12.77;;;5.43;;
14143;SDS011;7152;48.348;10.980;2023-07-30T04:07:59;5.63;;;5.03;;
14143;SDS011;7152;48.348;10.980;2023-07-30T04:10:25;6.23;;;5.63;;
14143;SDS011;7152;48.348;10.980;2023-07-30T04:12:51;7.30;;;5.00;;
14143;SDS011;7152;48.348;10.980;2023-07-30T04:15:17;5.50;;;5.00;;
14143;SDS011;7152;48.348;10.980;2023-07-30T04:17:42;7.47;;;5.20;;
14143;SDS011;7152;48.348;10.980;2023-07-30T04:20:09;7.67;;;5.50;;
14143;SDS011;7152;48.348;10.980;2023-07-30T04:22:35;6.37;;;5.37;;
14143;SDS011;7152;48.348;10.980;2023-07-30T04:25:02;8.17;;;6.10;;
14143;SDS011;7152;48.348;10.980;2023-07-30T04:27:28;6.90;;;5.80;;
14143;SDS011;7152;48.348;10.980;2023-07-30T04:29:54;6.73;;;5.87;;
14143;SDS011;7152;48.348;10.980;2023-07-30T04:32:20;6.67;;;5.97;;
14143;SDS011;7152;48.348;10.980;2023-07-30T04:34:46;6.50;;;5.70;;
14143;SDS011;7152;48.348;10.980;2023-07-30T04:37:12;6.17;;;5.33;;
14143;SDS011;7152;48.348;10.980;2023-07-30T04:39:38;5.97;;;5.37;;
14143;SDS011;7152;48.348;10.980;2023-07-30T04:42:05;6.50;;;5.47;;
14143;SDS011;7152;48.348;10.980;2023-07-30T04:44:31;6.83;;;5.53;;
14143;SDS011;7152;48.348;10.980;2023-07-30T04:47:04;6.90;;;5.60;;
14143;SDS011;7152;48.348;10.980;2023-07-30T04:49:30;5.27;;;4.77;;
14143;SDS011;7152;48.348;10.980;2023-07-30T04:51:56;6.30;;;4.77;;
14143;SDS011;7152;48.348;10.980;2023-07-30T04:54:22;5.57;;;5.07;;
14143;SDS011;7152;48.348;10.980;2023-07-30T04:56:49;6.43;;;5.20;;
14143;SDS011;7152;48.348;10.980;2023-07-30T04:59:15;5.17;;;4.67;;
14143;SDS011;7152;48.348;10.980;2023-07-30T05:01:41;5.50;;;5.00;;
14143;SDS011;7152;48.348;10.980;2023-07-30T05:04:06;5.00;;;4.50;;
14143;SDS011;7152;48.348;10.980;2023-07-30T05:06:32;5.63;;;4.60;;
14143;SDS011;7152;48.348;10.980;2023-07-30T05:08:58;5.23;;;4.73;;
14143;SDS011;7152;48.348;10.980;2023-07-30T05:11:24;5.07;;;4.50;;
14143;SDS011;7152;48.348;10.980;2023-07-30T05:13:50;5.90;;;4.90;;
14143;SDS011;7152;48.348;10.980;2023-07-30T05:16:15;5.40;;;4.63;;
14143;SDS011;7152;48.348;10.980;2023-07-30T05:18:41;5.97;;;4.60;;
14143;SDS011;7152;48.348;10.980;2023-07-30T05:21:07;5.87;;;4.90;;
14143;SDS011;7152;48.348;10.980;2023-07-30T05:23:33;5.23;;;4.57;;
14143;SDS011;7152;48.348;10.980;2023-07-30T05:25:59;4.60;;;4.20;;
14143;SDS011;7152;48.348;10.980;2023-07-30T05:28:24;4.20;;;3.90;;
14143;SDS011;7152;48.348;10.980;2023-07-30T05:30:51;4.30;;;3.90;;
14143;SDS011;7152;48.348;10.980;2023-07-30T05:33:16;4.10;;;3.53;;
14143;SDS011;7152;48.348;10.980;2023-07-30T05:35:42;4.00;;;3.70;;
14143;SDS011;7152;48.348;10.980;2023-07-30T05:38:09;4.13;;;3.63;;
14143;SDS011;7152;48.348;10.980;2023-07-30T05:40:35;6.90;;;3.80;;
14143;SDS011;7152;48.348;10.980;2023-07-30T05:43:01;4.70;;;3.70;;
14143;SDS011;7152;48.348;10.980;2023-07-30T05:45:27;4.13;;;3.77;;
14143;SDS011;7152;48.348;10.980;2023-07-30T05:47:54;3.87;;;3.57;;
14143;SDS011;7152;48.348;10.980;2023-07-30T05:50:19;4.03;;;3.63;;
14143;SDS011;7152;48.348;10.980;2023-07-30T05:52:45;3.73;;;3.43;;
14143;SDS011;7152;48.348;10.980;2023-07-30T05:55:11;3.80;;;3.50;;
14143;SDS011;7152;48.348;10.980;2023-07-30T05:57:37;3.63;;;3.33;;
14143;SDS011;7152;48.348;10.980;2023-07-30T06:00:03;3.73;;;3.43;;
14143;SDS011;7152;48.348;10.980;2023-07-30T06:02:37;3.23;;;3.03;;
14143;SDS011;7152;48.348;10.980;2023-07-30T06:05:03;3.33;;;3.07;;
14143;SDS011;7152;48.348;10.980;2023-07-30T06:07:30;3.37;;;3.07;;
14143;SDS011;7152;48.348;10.980;2023-07-30T06:09:55;3.20;;;3.00;;
14143;SDS011;7152;48.348;10.980;2023-07-30T06:12:21;3.80;;;3.13;;
14143;SDS011;7152;48.348;10.980;2023-07-30T06:14:47;3.20;;;3.00;;
14143;SDS011;7152;48.348;10.980;2023-07-30T06:17:13;3.10;;;2.90;;
14143;SDS011;7152;48.348;10.980;2023-07-30T06:19:39;3.43;;;2.63;;
14143;SDS011;7152;48.348;10.980;2023-07-30T06:22:05;4.57;;;3.13;;
14143;SDS011;7152;48.348;10.980;2023-07-30T06:24:31;4.10;;;2.33;;
14143;SDS011;7152;48.348;10.980;2023-07-30T06:26:56;4.30;;;2.60;;
14143;SDS011;7152;48.348;10.980;2023-07-30T06:29:22;4.10;;;2.77;;
14143;SDS011;7152;48.348;10.980;2023-07-30T06:31:48;3.17;;;2.87;;
14143;SDS011;7152;48.348;10.980;2023-07-30T06:34:14;4.07;;;3.07;;
14143;SDS011;7152;48.348;10.980;2023-07-30T06:36:40;2.73;;;2.53;;
14143;SDS011;7152;48.348;10.980;2023-07-30T06:39:06;2.90;;;2.70;;
14143;SDS011;7152;48.348;10.980;2023-07-30T06:41:32;2.67;;;2.30;;
14143;SDS011;7152;48.348;10.980;2023-07-30T06:43:58;2.50;;;2.30;;
14143;SDS011;7152;48.348;10.980;2023-07-30T06:46:24;2.83;;;2.30;;
14143;SDS011;7152;48.348;10.980;2023-07-30T06:48:50;2.40;;;2.20;;
14143;SDS011;7152;48.348;10.980;2023-07-30T06:51:18;2.70;;;2.50;;
14143;SDS011;7152;48.348;10.980;2023-07-30T06:53:45;2.97;;;2.40;;
14143;SDS011;7152;48.348;10.980;2023-07-30T06:56:11;2.80;;;2.60;;
14143;SDS011;7152;48.348;10.980;2023-07-30T06:58:37;2.97;;;2.50;;
14143;SDS011;7152;48.348;10.980;2023-07-30T07:01:02;2.80;;;2.60;;
14143;SDS011;7152;48.348;10.980;2023-07-30T07:03:28;2.80;;;2.50;;
14143;SDS011;7152;48.348;10.980;2023-07-30T07:05:54;2.63;;;2.23;;
14143;SDS011;7152;48.348;10.980;2023-07-30T07:08:21;2.20;;;2.00;;
14143;SDS011;7152;48.348;10.980;2023-07-30T07:10:47;2.80;;;2.50;;
14143;SDS011;7152;48.348;10.980;2023-07-30T07:13:13;3.20;;;2.50;;
14143;SDS011;7152;48.348;10.980;2023-07-30T07:15:43;2.60;;;2.20;;
14143;SDS011;7152;48.348;10.980;2023-07-30T07:18:09;3.87;;;2.40;;
14143;SDS011;7152;48.348;10.980;2023-07-30T07:20:39;2.70;;;2.50;;
14143;SDS011;7152;48.348;10.980;2023-07-30T07:23:05;2.73;;;2.50;;
14143;SDS011;7152;48.348;10.980;2023-07-30T07:25:30;2.20;;;2.00;;
14143;SDS011;7152;48.348;10.980;2023-07-30T07:27:56;2.27;;;2.07;;
14143;SDS011;7152;48.348;10.980;2023-07-30T07:30:22;2.50;;;2.30;;
14143;SDS011;7152;48.348;10.980;2023-07-30T07:32:48;2.47;;;2.27;;
14143;SDS011;7152;48.348;10.980;2023-07-30T07:35:18;3.43;;;2.50;;
14143;SDS011;7152;48.348;10.980;2023-07-30T07:37:45;2.90;;;2.10;;
14143;SDS011;7152;48.348;10.980;2023-07-30T07:40:11;3.00;;;2.20;;
14143;SDS011;7152;48.348;10.980;2023-07-30T07:42:40;2.50;;;2.30;;
14143;SDS011;7152;48.348;10.980;2023-07-30T07:45:06;3.43;;;1.97;;
14143;SDS011;7152;48.348;10.980;2023-07-30T07:47:32;2.53;;;2.33;;
14143;SDS011;7152;48.348;10.980;2023-07-30T07:49:58;1.90;;;1.80;;
14143;SDS011;7152;48.348;10.980;2023-07-30T07:52:24;2.10;;;1.90;;
14143;SDS011;7152;48.348;10.980;2023-07-30T07:54:50;2.20;;;2.00;;
14143;SDS011;7152;48.348;10.980;2023-07-30T07:57:16;2.67;;;2.00;;
14143;SDS011;7152;48.348;10.980;2023-07-30T07:59:42;2.13;;;1.90;;
14143;SDS011;7152;48.348;10.980;2023-07-30T08:02:10;2.17;;;1.97;;
14143;SDS011;7152;48.348;10.980;2023-07-30T08:04:37;2.30;;;2.10;;
14143;SDS011;7152;48.348;10.980;2023-07-30T08:07:03;1.77;;;1.67;;
14143;SDS011;7152;48.348;10.980;2023-07-30T08:09:30;1.90;;;1.70;;
14143;SDS011;7152;48.348;10.980;2023-07-30T08:11:56;1.30;;;1.20;;
14143;SDS011;7152;48.348;10.980;2023-07-30T08:14:21;2.17;;;1.73;;
14143;SDS011;7152;48.348;10.980;2023-07-30T08:16:47;2.07;;;1.73;;
14143;SDS011;7152;48.348;10.980;2023-07-30T08:19:13;1.60;;;1.50;;
14143;SDS011;7152;48.348;10.980;2023-07-30T08:21:39;1.87;;;1.70;;
14143;SDS011;7152;48.348;10.980;2023-07-30T08:24:05;1.70;;;1.60;;
14143;SDS011;7152;48.348;10.980;2023-07-30T08:26:31;1.70;;;1.60;;
14143;SDS011;7152;48.348;10.980;2023-07-30T08:28:57;1.90;;;1.70;;
14143;SDS011;7152;48.348;10.980;2023-07-30T08:31:23;1.93;;;1.83;;
14143;SDS011;7152;48.348;10.980;2023-07-30T08:33:49;1.83;;;1.73;;
14143;SDS011;7152;48.348;10.980;2023-07-30T08:36:15;1.63;;;1.53;;
14143;SDS011;7152;48.348;10.980;2023-07-30T08:38:41;1.60;;;1.50;;
14143;SDS011;7152;48.348;10.980;2023-07-30T08:41:07;2.13;;;1.50;;
14143;SDS011;7152;48.348;10.980;2023-07-30T08:43:33;5.97;;;2.07;;
14143;SDS011;7152;48.348;10.980;2023-07-30T08:46:00;1.83;;;1.73;;
14143;SDS011;7152;48.348;10.980;2023-07-30T08:48:26;1.70;;;1.60;;
14143;SDS011;7152;48.348;10.980;2023-07-30T08:50:52;1.60;;;1.47;;
14143;SDS011;7152;48.348;10.980;2023-07-30T08:53:23;3.13;;;1.57;;
14143;SDS011;7152;48.348;10.980;2023-07-30T08:55:50;1.80;;;1.60;;
14143;SDS011;7152;48.348;10.980;2023-07-30T08:58:16;2.73;;;1.70;;
14143;SDS011;7152;48.348;10.980;2023-07-30T09:00:43;1.47;;;1.33;;
14143;SDS011;7152;48.348;10.980;2023-07-30T09:03:11;2.50;;;1.30;;
14143;SDS011;7152;48.348;10.980;2023-07-30T09:05:40;1.60;;;1.23;;
14143;SDS011;7152;48.348;10.980;2023-07-30T09:08:06;1.30;;;1.20;;
14143;SDS011;7152;48.348;10.980;2023-07-30T09:10:33;1.63;;;1.40;;
14143;SDS011;7152;48.348;10.980;2023-07-30T09:13:01;1.53;;;1.43;;
14143;SDS011;7152;48.348;10.980;2023-07-30T09:15:34;1.40;;;1.30;;
14143;SDS011;7152;48.348;10.980;2023-07-30T09:18:05;1.43;;;1.33;;
14143;SDS011;7152;48.348;10.980;2023-07-30T09:20:41;1.47;;;1.37;;
14143;SDS011;7152;48.348;10.980;2023-07-30T09:23:07;1.50;;;1.40;;
14143;SDS011;7152;48.348;10.980;2023-07-30T09:25:34;1.67;;;1.20;;
14143;SDS011;7152;48.348;10.980;2023-07-30T09:28:01;2.17;;;1.70;;
14143;SDS011;7152;48.348;10.980;2023-07-30T09:30:27;1.67;;;1.53;;
14143;SDS011;7152;48.348;10.980;2023-07-30T09:32:57;1.30;;;1.20;;
14143;SDS011;7152;48.348;10.980;2023-07-30T09:35:23;2.17;;;1.47;;
14143;SDS011;7152;48.348;10.980;2023-07-30T09:37:51;2.43;;;1.33;;
14143;SDS011;7152;48.348;10.980;2023-07-30T09:40:34;1.52;;;1.42;;
14143;SDS011;7152;48.348;10.980;2023-07-30T09:43:02;1.63;;;1.35;;
14143;SDS011;7152;48.348;10.980;2023-07-30T09:45:32;1.30;;;1.20;;
14143;SDS011;7152;48.348;10.980;2023-07-30T09:47:59;1.33;;;1.23;;
14143;SDS011;7152;48.348;10.980;2023-07-30T09:50:28;1.37;;;1.20;;
14143;SDS011;7152;48.348;10.980;2023-07-30T09:52:55;1.50;;;1.40;;
14143;SDS011;7152;48.348;10.980;2023-07-30T09:55:23;1.83;;;1.33;;
14143;SDS011;7152;48.348;10.980;2023-07-30T09:57:49;1.93;;;1.50;;
14143;SDS011;7152;48.348;10.980;2023-07-30T10:00:15;1.33;;;1.20;;
14143;SDS011;7152;48.348;10.980;2023-07-30T10:02:41;1.83;;;1.27;;
14143;SDS011;7152;48.348;10.980;2023-07-30T10:05:14;1.30;;;1.20;;
14143;SDS011;7152;48.348;10.980;2023-07-30T10:07:47;1.30;;;1.13;;
14143;SDS011;7152;48.348;10.980;2023-07-30T10:10:34;1.60;;;1.50;;
14143;SDS011;7152;48.348;10.980;2023-07-30T10:13:01;2.75;;;1.63;;
14143;SDS011;7152;48.348;10.980;2023-07-30T10:15:35;1.20;;;1.10;;
14143;SDS011;7152;48.348;10.980;2023-07-30T10:18:02;1.80;;;1.60;;
14143;SDS011;7152;48.348;10.980;2023-07-30T10:20:28;1.43;;;1.33;;
14143;SDS011;7152;48.348;10.980;2023-07-30T10:22:57;1.73;;;1.50;;
14143;SDS011;7152;48.348;10.980;2023-07-30T10:25:47;1.90;;;1.30;;
14143;SDS011;7152;48.348;10.980;2023-07-30T10:30:59;1.30;;;1.20;;
14143;SDS011;7152;48.348;10.980;2023-07-30T10:36:32;2.80;;;1.60;;
14143;SDS011;7152;48.348;10.980;2023-07-30T10:41:57;1.67;;;1.57;;
14143;SDS011;7152;48.348;10.980;2023-07-30T10:44:25;1.27;;;1.10;;
14143;SDS011;7152;48.348;10.980;2023-07-30T10:46:53;2.93;;;1.50;;
14143;SDS011;7152;48.348;10.980;2023-07-30T10:49:23;2.80;;;1.30;;
14143;SDS011;7152;48.348;10.980;2023-07-30T10:51:52;1.47;;;1.33;;
14143;SDS011;7152;48.348;10.980;2023-07-30T10:54:20;1.43;;;1.13;;
14143;SDS011;7152;48.348;10.980;2023-07-30T10:56:46;1.30;;;1.20;;
14143;SDS011;7152;48.348;10.980;2023-07-30T10:59:12;2.57;;;1.30;;
14143;SDS011;7152;48.348;10.980;2023-07-30T11:01:39;1.83;;;1.40;;
14143;SDS011;7152;48.348;10.980;2023-07-30T11:04:10;3.73;;;1.90;;
14143;SDS011;7152;48.348;10.980;2023-07-30T11:06:50;2.57;;;1.70;;
14143;SDS011;7152;48.348;10.980;2023-07-30T11:09:20;3.83;;;1.87;;
14143;SDS011;7152;48.348;10.980;2023-07-30T11:11:47;1.97;;;1.67;;
14143;SDS011;7152;48.348;10.980;2023-07-30T11:14:17;1.80;;;1.70;;
14143;SDS011;7152;48.348;10.980;2023-07-30T11:16:58;2.17;;;1.90;;
14143;SDS011;7152;48.348;10.980;2023-07-30T11:19:24;1.53;;;1.30;;
14143;SDS011;7152;48.348;10.980;2023-07-30T11:21:52;2.37;;;1.43;;
14143;SDS011;7152;48.348;10.980;2023-07-30T11:24:22;1.70;;;1.50;;
14143;SDS011;7152;48.348;10.980;2023-07-30T11:26:58;2.67;;;1.60;;
14143;SDS011;7152;48.348;10.980;2023-07-30T11:29:28;2.37;;;1.90;;
14143;SDS011;7152;48.348;10.980;2023-07-30T11:31:57;2.07;;;1.80;;
14143;SDS011;7152;48.348;10.980;2023-07-30T11:34:24;1.90;;;1.67;;
14143;SDS011;7152;48.348;10.980;2023-07-30T11:36:51;2.80;;;1.70;;
14143;SDS011;7152;48.348;10.980;2023-07-30T11:39:18;1.47;;;1.37;;
14143;SDS011;7152;48.348;10.980;2023-07-30T11:41:45;2.50;;;1.63;;
14143;SDS011;7152;48.348;10.980;2023-07-30T11:44:29;1.43;;;1.33;;
14143;SDS011;7152;48.348;10.980;2023-07-30T11:46:59;1.70;;;1.60;;
14143;SDS011;7152;48.348;10.980;2023-07-30T11:49:25;1.80;;;1.60;;
14143;SDS011;7152;48.348;10.980;2023-07-30T11:51:51;1.50;;;1.40;;
14143;SDS011;7152;48.348;10.980;2023-07-30T11:54:33;1.63;;;1.53;;
14143;SDS011;7152;48.348;10.980;2023-07-30T11:57:00;1.60;;;1.50;;
14143;SDS011;7152;48.348;10.980;2023-07-30T11:59:26;1.97;;;1.60;;
14143;SDS011;7152;48.348;10.980;2023-07-30T12:01:52;2.63;;;1.97;;
14143;SDS011;7152;48.348;10.980;2023-07-30T12:04:17;1.60;;;1.50;;
14143;SDS011;7152;48.348;10.980;2023-07-30T12:06:44;1.87;;;1.10;;
14143;SDS011;7152;48.348;10.980;2023-07-30T12:11:48;1.67;;;1.58;;
14143;SDS011;7152;48.348;10.980;2023-07-30T12:14:22;1.52;;;1.42;;
14143;SDS011;7152;48.348;10.980;2023-07-30T12:16:58;1.20;;;1.10;;
14143;SDS011;7152;48.348;10.980;2023-07-30T12:19:25;2.38;;;1.23;;
14143;SDS011;7152;48.348;10.980;2023-07-30T12:21:51;1.30;;;1.08;;
14143;SDS011;7152;48.348;10.980;2023-07-30T12:24:17;1.80;;;1.40;;
14143;SDS011;7152;48.348;10.980;2023-07-30T12:26:43;1.92;;;1.40;;
14143;SDS011;7152;48.348;10.980;2023-07-30T12:29:09;1.50;;;1.23;;
14143;SDS011;7152;48.348;10.980;2023-07-30T12:31:35;1.90;;;1.23;;
14143;SDS011;7152;48.348;10.980;2023-07-30T12:34:00;1.33;;;1.15;;
14143;SDS011;7152;48.348;10.980;2023-07-30T12:36:26;1.30;;;1.20;;
14143;SDS011;7152;48.348;10.980;2023-07-30T12:38:52;3.40;;;1.70;;
14143;SDS011;7152;48.348;10.980;2023-07-30T12:41:19;2.20;;;1.93;;
14143;SDS011;7152;48.348;10.980;2023-07-30T12:43:54;2.60;;;1.90;;
14143;SDS011;7152;48.348;10.980;2023-07-30T12:46:24;3.33;;;2.83;;
14143;SDS011;7152;48.348;10.980;2023-07-30T12:48:55;2.50;;;1.80;;
14143;SDS011;7152;48.348;10.980;2023-07-30T12:51:21;1.80;;;1.70;;
14143;SDS011;7152;48.348;10.980;2023-07-30T12:53:48;2.33;;;1.80;;
14143;SDS011;7152;48.348;10.980;2023-07-30T12:56:15;2.70;;;1.93;;
14143;SDS011;7152;48.348;10.980;2023-07-30T12:58:41;2.00;;;1.70;;
14143;SDS011;7152;48.348;10.980;2023-07-30T13:01:07;2.23;;;1.60;;
14143;SDS011;7152;48.348;10.980;2023-07-30T13:03:33;2.03;;;1.60;;
14143;SDS011;7152;48.348;10.980;2023-07-30T13:05:58;2.58;;;1.70;;
14143;SDS011;7152;48.348;10.980;2023-07-30T13:08:24;1.60;;;1.50;;
14143;SDS011;7152;48.348;10.980;2023-07-30T13:10:50;1.75;;;1.40;;
14143;SDS011;7152;48.348;10.980;2023-07-30T13:13:16;1.63;;;1.52;;
14143;SDS011;7152;48.348;10.980;2023-07-30T13:15:42;2.30;;;1.20;;
14143;SDS011;7152;48.348;10.980;2023-07-30T13:18:08;1.30;;;1.20;;
14143;SDS011;7152;48.348;10.980;2023-07-30T13:20:33;2.10;;;1.40;;
14143;SDS011;7152;48.348;10.980;2023-07-30T13:22:59;1.92;;;1.40;;
14143;SDS011;7152;48.348;10.980;2023-07-30T13:25:25;1.45;;;1.35;;
14143;SDS011;7152;48.348;10.980;2023-07-30T13:27:51;2.58;;;1.23;;
14143;SDS011;7152;48.348;10.980;2023-07-30T13:30:17;1.30;;;1.20;;
14143;SDS011;7152;48.348;10.980;2023-07-30T13:32:43;1.70;;;1.45;;
14143;SDS011;7152;48.348;10.980;2023-07-30T13:35:09;1.98;;;1.42;;
14143;SDS011;7152;48.348;10.980;2023-07-30T13:37:34;1.45;;;1.33;;
14143;SDS011;7152;48.348;10.980;2023-07-30T13:40:00;1.38;;;1.27;;
14143;SDS011;7152;48.348;10.980;2023-07-30T13:42:26;1.65;;;1.55;;
14143;SDS011;7152;48.348;10.980;2023-07-30T13:44:52;2.10;;;1.30;;
14143;SDS011;7152;48.348;10.980;2023-07-30T13:47:18;1.67;;;1.23;;
14143;SDS011;7152;48.348;10.980;2023-07-30T13:49:43;1.23;;;1.02;;
14143;SDS011;7152;48.348;10.980;2023-07-30T13:52:09;2.85;;;1.30;;
14143;SDS011;7152;48.348;10.980;2023-07-30T13:54:35;1.60;;;1.35;;
14143;SDS011;7152;48.348;10.980;2023-07-30T13:57:04;1.55;;;1.35;;
14143;SDS011;7152;48.348;10.980;2023-07-30T13:59:30;1.48;;;1.38;;
14143;SDS011;7152;48.348;10.980;2023-07-30T14:01:56;1.20;;;1.10;;
14143;SDS011;7152;48.348;10.980;2023-07-30T14:04:22;3.53;;;1.85;;
14143;SDS011;7152;48.348;10.980;2023-07-30T14:06:48;1.38;;;1.27;;
14143;SDS011;7152;48.348;10.980;2023-07-30T14:09:14;2.17;;;1.35;;
14143;SDS011;7152;48.348;10.980;2023-07-30T14:11:39;1.42;;;1.33;;
14143;SDS011;7152;48.348;10.980;2023-07-30T14:14:10;1.48;;;1.38;;
14143;SDS011;7152;48.348;10.980;2023-07-30T14:16:36;1.70;;;1.25;;
14143;SDS011;7152;48.348;10.980;2023-07-30T14:19:01;1.63;;;1.30;;
14143;SDS011;7152;48.348;10.980;2023-07-30T14:21:27;1.60;;;1.30;;
14143;SDS011;7152;48.348;10.980;2023-07-30T14:23:53;1.60;;;1.35;;
14143;SDS011;7152;48.348;10.980;2023-07-30T14:26:19;1.40;;;1.30;;
14143;SDS011;7152;48.348;10.980;2023-07-30T14:28:45;3.03;;;1.30;;
14143;SDS011;7152;48.348;10.980;2023-07-30T14:31:10;1.92;;;1.60;;
14143;SDS011;7152;48.348;10.980;2023-07-30T14:33:36;4.90;;;1.55;;
14143;SDS011;7152;48.348;10.980;2023-07-30T14:36:03;1.63;;;1.33;;
14143;SDS011;7152;48.348;10.980;2023-07-30T14:38:29;1.65;;;1.20;;
14143;SDS011;7152;48.348;10.980;2023-07-30T14:40:57;1.58;;;1.48;;
14143;SDS011;7152;48.348;10.980;2023-07-30T14:43:22;1.92;;;1.52;;
14143;SDS011;7152;48.348;10.980;2023-07-30T14:45:49;1.65;;;1.55;;
14143;SDS011;7152;48.348;10.980;2023-07-30T14:48:15;1.60;;;1.40;;
14143;SDS011;7152;48.348;10.980;2023-07-30T14:50:40;1.63;;;1.52;;
14143;SDS011;7152;48.348;10.980;2023-07-30T14:53:06;1.48;;;1.20;;
14143;SDS011;7152;48.348;10.980;2023-07-30T14:55:32;1.25;;;1.10;;
14143;SDS011;7152;48.348;10.980;2023-07-30T14:57:58;3.03;;;1.63;;